createdAt,value
2023-09-08T02:52:32.637Z,4.00
2023-09-08T02:54:59.289Z,2.70
2023-09-08T02:57:25.877Z,3.25
2023-09-08T02:59:52.631Z,2.47
2023-09-08T03:02:19.451Z,3.13
2023-09-08T03:04:46.184Z,3.30
2023-09-08T03:07:12.989Z,3.17
2023-09-08T03:09:39.717Z,3.15
2023-09-08T03:12:06.497Z,3.20
2023-09-08T03:14:33.238Z,3.30
2023-09-08T03:16:59.891Z,3.08
2023-09-08T03:19:26.496Z,2.85
2023-09-08T03:21:53.055Z,3.13
2023-09-08T03:24:19.591Z,2.63
2023-09-08T03:26:46.197Z,3.13
2023-09-08T03:29:12.835Z,3.78
2023-09-08T03:31:39.699Z,3.05
2023-09-08T03:34:06.761Z,3.13
2023-09-08T03:36:37.019Z,3.30
2023-09-08T03:39:04.431Z,2.90
2023-09-08T03:41:31.068Z,3.47
2023-09-08T03:43:58.416Z,3.03
2023-09-08T03:46:26.385Z,3.47
2023-09-08T03:48:55.462Z,3.10
2023-09-08T03:51:22.074Z,2.75
2023-09-08T03:53:48.662Z,3.38
2023-09-08T03:56:15.308Z,3.50
2023-09-08T03:58:41.985Z,2.78
2023-09-08T04:01:08.697Z,3.67
2023-09-08T04:03:35.667Z,3.08
2023-09-08T04:06:02.777Z,3.10
2023-09-08T04:08:29.361Z,3.65
2023-09-08T04:10:56.000Z,3.70
2023-09-08T04:13:22.641Z,3.50
2023-09-08T04:15:49.458Z,2.97
2023-09-08T04:18:16.334Z,3.45
2023-09-08T04:20:43.231Z,2.65
2023-09-08T04:23:10.377Z,3.38
2023-09-08T04:25:39.785Z,3.47
2023-09-08T04:28:06.920Z,3.53
2023-09-08T04:30:33.603Z,3.53
2023-09-08T04:33:00.872Z,3.72
2023-09-08T04:35:27.554Z,3.65
2023-09-08T04:37:54.837Z,3.50
2023-09-08T04:40:21.453Z,3.15
2023-09-08T04:42:49.346Z,3.80
2023-09-08T04:45:19.990Z,4.05
2023-09-08T04:47:47.968Z,4.03
2023-09-08T04:50:16.342Z,3.55
2023-09-08T04:52:44.156Z,3.90
2023-09-08T04:55:11.640Z,3.42
2023-09-08T04:57:38.401Z,3.60
2023-09-08T05:00:05.278Z,4.20
2023-09-08T05:02:33.127Z,4.13
2023-09-08T05:05:01.086Z,3.97
2023-09-08T05:07:28.109Z,3.53
2023-09-08T05:09:57.561Z,3.83
2023-09-08T05:12:27.130Z,4.13
2023-09-08T05:14:57.703Z,3.60
2023-09-08T05:17:24.945Z,3.40
2023-09-08T05:19:51.511Z,4.40
2023-09-08T05:22:18.562Z,5.50
2023-09-08T05:24:45.334Z,4.13
2023-09-08T05:27:12.226Z,4.07
2023-09-08T05:29:38.909Z,4.30
2023-09-08T05:32:05.603Z,3.53
2023-09-08T05:34:32.282Z,4.30
2023-09-08T05:36:59.005Z,3.78
2023-09-08T05:39:25.782Z,4.47
2023-09-08T05:41:53.198Z,3.50
2023-09-08T05:44:21.583Z,6.55
2023-09-08T05:46:49.113Z,4.53
2023-09-08T05:49:16.201Z,4.00
2023-09-08T05:51:43.373Z,3.35
2023-09-08T05:54:10.108Z,3.80
2023-09-08T05:56:37.726Z,4.22
2023-09-08T05:59:04.678Z,4.40
2023-09-08T06:01:31.929Z,4.22
2023-09-08T06:03:59.854Z,3.20
2023-09-08T06:06:29.550Z,3.90
2023-09-08T06:08:56.372Z,4.22
2023-09-08T06:11:23.432Z,4.00
2023-09-08T06:13:50.889Z,3.65
2023-09-08T06:16:17.610Z,4.57
2023-09-08T06:18:45.569Z,4.03
2023-09-08T06:21:16.303Z,3.50
2023-09-08T06:23:43.206Z,3.97
2023-09-08T06:26:10.656Z,3.17
2023-09-08T06:28:38.625Z,3.03
2023-09-08T06:31:05.705Z,4.18
2023-09-08T06:33:32.583Z,3.88
2023-09-08T06:35:59.414Z,4.20
2023-09-08T06:38:26.235Z,3.53
2023-09-08T06:40:54.120Z,3.22
2023-09-08T06:43:21.457Z,3.92
2023-09-08T06:45:57.732Z,3.63
2023-09-08T06:48:24.757Z,3.30
2023-09-08T06:50:55.401Z,3.25
2023-09-08T06:53:23.111Z,2.97
2023-09-08T06:55:50.140Z,3.28
2023-09-08T06:58:17.056Z,3.58
2023-09-08T07:00:44.152Z,3.03
2023-09-08T07:03:11.290Z,3.60
2023-09-08T07:05:40.250Z,8.77
2023-09-08T07:08:09.851Z,2.88
2023-09-08T07:10:36.612Z,3.08
2023-09-08T07:13:03.584Z,3.65
2023-09-08T07:15:30.366Z,3.65
2023-09-08T07:17:57.984Z,4.28
2023-09-08T07:20:24.679Z,3.70
2023-09-08T07:22:51.309Z,3.90
2023-09-08T07:25:17.940Z,4.10
2023-09-08T07:27:45.585Z,3.33
2023-09-08T07:30:13.472Z,3.70
2023-09-08T07:32:40.474Z,3.63
2023-09-08T07:35:14.984Z,3.67
2023-09-08T07:37:42.599Z,3.47
2023-09-08T07:40:12.645Z,3.17
2023-09-08T07:42:39.240Z,2.60
2023-09-08T07:45:08.276Z,3.42
2023-09-08T07:47:34.839Z,3.17
2023-09-08T07:50:17.499Z,3.63
2023-09-08T07:52:44.076Z,2.53
2023-09-08T07:55:10.754Z,2.78
2023-09-08T07:57:37.489Z,2.95
2023-09-08T08:00:04.958Z,4.65
2023-09-08T08:02:39.610Z,4.00
2023-09-08T08:05:06.839Z,2.60
2023-09-08T08:07:33.365Z,2.88
2023-09-08T08:10:00.514Z,2.28
2023-09-08T08:12:27.082Z,3.28
2023-09-08T08:14:53.723Z,3.00
2023-09-08T08:17:21.140Z,3.35
2023-09-08T08:19:48.161Z,3.08
2023-09-08T08:22:14.777Z,4.10
2023-09-08T08:24:41.482Z,2.72
2023-09-08T08:27:08.132Z,3.42
2023-09-08T08:29:34.726Z,2.42
2023-09-08T08:32:01.360Z,2.30
2023-09-08T08:34:28.036Z,3.05
2023-09-08T08:36:54.802Z,2.80
2023-09-08T08:39:21.399Z,2.47
2023-09-08T08:41:48.007Z,2.35
2023-09-08T08:44:16.430Z,2.40
2023-09-08T08:46:43.668Z,3.92
2023-09-08T08:49:11.083Z,2.70
2023-09-08T08:51:38.344Z,3.00
2023-09-08T08:54:07.861Z,2.58
2023-09-08T08:56:36.719Z,3.38
2023-09-08T08:59:03.623Z,2.80
2023-09-08T09:01:31.139Z,2.80
2023-09-08T09:03:59.335Z,2.25
2023-09-08T09:06:26.019Z,2.53
2023-09-08T09:08:52.641Z,3.05
2023-09-08T09:11:19.257Z,2.53
2023-09-08T09:13:45.979Z,3.10
2023-09-08T09:16:12.622Z,2.47
2023-09-08T09:18:58.815Z,2.70
2023-09-08T09:21:26.179Z,2.08
2023-09-08T09:23:52.750Z,2.45
2023-09-08T09:26:26.413Z,2.72
2023-09-08T09:28:53.294Z,2.47
2023-09-08T09:31:19.981Z,3.13
2023-09-08T09:33:46.687Z,2.78
2023-09-08T09:36:21.036Z,3.17
2023-09-08T09:38:47.991Z,2.40
2023-09-08T09:41:14.730Z,2.30
2023-09-08T09:43:41.623Z,2.47
2023-09-08T09:46:09.952Z,2.42
2023-09-08T09:48:36.994Z,2.33
2023-09-08T09:51:16.691Z,2.25
2023-09-08T09:53:43.819Z,2.63
2023-09-08T09:56:11.009Z,2.08
2023-09-08T09:58:38.691Z,2.53
2023-09-08T10:01:06.714Z,2.30
2023-09-08T10:03:34.664Z,3.05
2023-09-08T10:06:01.396Z,2.65
2023-09-08T10:08:29.852Z,2.53
2023-09-08T10:10:57.126Z,2.20
2023-09-08T10:13:31.279Z,2.30
2023-09-08T10:15:58.367Z,3.00
2023-09-08T10:18:25.074Z,2.67
2023-09-08T10:20:54.397Z,2.65
2023-09-08T10:23:25.504Z,2.22
2023-09-08T10:25:56.877Z,2.80
2023-09-08T10:28:23.732Z,2.85
2023-09-08T10:30:51.215Z,2.13
2023-09-08T10:33:18.739Z,2.83
2023-09-08T10:35:45.756Z,2.38
2023-09-08T10:38:31.117Z,2.80
2023-09-08T10:41:16.066Z,2.45
2023-09-08T10:44:00.405Z,2.38
2023-09-08T10:46:29.022Z,2.42
2023-09-08T10:48:56.430Z,2.05
2023-09-08T10:51:24.183Z,3.28
2023-09-08T10:53:50.884Z,2.20
2023-09-08T10:56:19.030Z,2.17
2023-09-08T10:58:49.743Z,2.10
2023-09-08T11:01:28.666Z,2.35
2023-09-08T11:03:55.767Z,2.85
2023-09-08T11:06:23.462Z,2.22
2023-09-08T11:08:54.072Z,2.35
2023-09-08T11:11:21.202Z,2.97
2023-09-08T11:13:48.250Z,2.40
2023-09-08T11:16:22.696Z,2.28
2023-09-08T11:18:51.787Z,2.20
2023-09-08T11:21:18.451Z,2.10
2023-09-08T11:23:45.389Z,4.32
2023-09-08T11:26:13.310Z,2.42
2023-09-08T11:28:40.275Z,1.95
2023-09-08T11:31:07.240Z,2.50
2023-09-08T11:33:34.781Z,2.53
2023-09-08T11:36:01.405Z,2.00
2023-09-08T11:38:28.536Z,2.10
2023-09-08T11:40:56.217Z,1.88
2023-09-08T11:43:22.818Z,1.48
2023-09-08T11:45:49.724Z,2.17
2023-09-08T11:48:16.607Z,1.63
2023-09-08T11:50:45.616Z,1.95
2023-09-08T11:53:12.545Z,1.98
2023-09-08T11:55:39.257Z,1.48
2023-09-08T11:58:06.025Z,2.05
2023-09-08T12:00:33.720Z,2.35
2023-09-08T12:03:12.827Z,2.00
2023-09-08T12:05:40.004Z,2.67
2023-09-08T12:08:06.745Z,2.47
2023-09-08T12:10:40.590Z,2.53
2023-09-08T12:13:07.339Z,2.20
2023-09-08T12:15:34.504Z,2.28
2023-09-08T12:18:01.946Z,2.08
2023-09-08T12:20:29.106Z,2.10
2023-09-08T12:22:58.277Z,2.00
2023-09-08T12:25:24.855Z,2.17
2023-09-08T12:27:52.131Z,1.88
2023-09-08T12:30:19.787Z,2.13
2023-09-08T12:32:47.746Z,2.20
2023-09-08T12:35:14.737Z,2.03
2023-09-08T12:37:41.535Z,1.95
2023-09-08T12:40:08.442Z,1.63
2023-09-08T12:42:37.585Z,2.08
2023-09-08T12:45:07.110Z,2.30
2023-09-08T12:47:33.784Z,2.30
2023-09-08T12:50:01.055Z,2.72
2023-09-08T12:52:27.654Z,2.65
2023-09-08T12:54:54.249Z,2.75
2023-09-08T12:57:21.019Z,2.13
2023-09-08T12:59:48.144Z,2.40
2023-09-08T13:02:14.847Z,2.55
2023-09-08T13:04:41.765Z,2.38
2023-09-08T13:07:08.390Z,1.85
2023-09-08T13:09:35.079Z,1.90
2023-09-08T13:12:01.837Z,1.77
2023-09-08T13:14:28.417Z,2.38
2023-09-08T13:16:55.156Z,1.85
2023-09-08T13:19:21.883Z,2.50
2023-09-08T13:21:48.480Z,1.92
2023-09-08T13:24:15.162Z,2.15
2023-09-08T13:26:42.119Z,2.55
2023-09-08T13:29:08.790Z,1.85
2023-09-08T13:31:35.887Z,1.60
2023-09-08T13:34:02.630Z,2.92
2023-09-08T13:36:29.247Z,1.75
2023-09-08T13:38:55.868Z,1.95
2023-09-08T13:41:22.462Z,1.85
2023-09-08T13:43:49.170Z,1.83
2023-09-08T13:46:15.925Z,2.38
2023-09-08T13:48:43.208Z,1.90
2023-09-08T13:51:10.936Z,1.88
2023-09-08T13:53:42.530Z,1.90
2023-09-08T13:56:14.412Z,1.50
2023-09-08T13:58:49.532Z,3.47
2023-09-08T14:01:20.070Z,2.30
2023-09-08T14:06:21.403Z,2.20
2023-09-08T14:11:26.392Z,1.92
2023-09-08T14:13:53.458Z,2.08
2023-09-08T14:16:20.332Z,1.63
2023-09-08T14:18:47.296Z,2.30
2023-09-08T14:21:14.129Z,2.20
2023-09-08T14:23:41.899Z,1.80
2023-09-08T14:26:09.422Z,1.65
2023-09-08T14:28:36.215Z,1.88
2023-09-08T14:31:03.007Z,1.63
2023-09-08T14:33:29.611Z,1.90
2023-09-08T14:35:57.182Z,1.73
2023-09-08T14:38:24.413Z,1.80
2023-09-08T14:41:00.772Z,2.55
2023-09-08T14:43:28.141Z,2.00
2023-09-08T14:45:55.045Z,2.28
2023-09-08T14:48:21.740Z,2.28
2023-09-08T14:50:48.373Z,1.70
2023-09-08T14:53:15.062Z,1.73
2023-09-08T14:55:43.628Z,2.78
2023-09-08T14:58:11.930Z,1.80
2023-09-08T15:00:38.854Z,1.75
2023-09-08T15:03:05.858Z,1.98
2023-09-08T15:05:33.347Z,1.75
2023-09-08T15:08:00.279Z,2.20
2023-09-08T15:10:26.967Z,1.60
2023-09-08T15:12:53.610Z,2.10
2023-09-08T15:15:24.633Z,1.88
2023-09-08T15:17:52.120Z,1.80
2023-09-08T15:20:18.798Z,1.60
2023-09-08T15:22:45.550Z,2.35
2023-09-08T15:25:12.184Z,1.83
2023-09-08T15:27:38.890Z,1.75
2023-09-08T15:30:05.965Z,2.00
2023-09-08T15:32:32.734Z,1.73
2023-09-08T15:34:59.548Z,1.88
2023-09-08T15:37:26.197Z,1.60
2023-09-08T15:39:54.225Z,1.88
2023-09-08T15:42:20.846Z,1.85
2023-09-08T15:44:47.402Z,1.58
2023-09-08T15:47:14.040Z,2.20
2023-09-08T15:49:41.824Z,2.00
2023-09-08T15:52:16.474Z,2.78
2023-09-08T15:54:43.801Z,2.00
2023-09-08T15:57:10.521Z,1.90
2023-09-08T15:59:37.483Z,1.83
2023-09-08T16:02:04.347Z,2.10
2023-09-08T16:04:31.280Z,2.10
2023-09-08T16:06:58.133Z,1.70
2023-09-08T16:09:24.806Z,2.13
2023-09-08T16:11:52.428Z,1.88
2023-09-08T16:14:19.232Z,2.13
2023-09-08T16:16:45.840Z,1.60
2023-09-08T16:19:12.415Z,2.30
2023-09-08T16:21:39.048Z,2.05
2023-09-08T16:24:05.822Z,2.17
2023-09-08T16:26:32.417Z,2.33
2023-09-08T16:28:59.142Z,1.85
2023-09-08T16:31:25.720Z,2.03
2023-09-08T16:33:52.353Z,1.85
2023-09-08T16:36:18.989Z,2.15
2023-09-08T16:38:45.609Z,1.98
2023-09-08T16:41:12.232Z,2.50
2023-09-08T16:43:39.159Z,2.33
2023-09-08T16:46:05.996Z,1.80
2023-09-08T16:48:32.778Z,2.47
2023-09-08T16:50:59.424Z,2.17
2023-09-08T16:53:26.004Z,2.17
2023-09-08T16:55:52.636Z,2.33
2023-09-08T16:58:19.611Z,1.90
2023-09-08T17:00:46.183Z,2.10
2023-09-08T17:03:13.115Z,2.50
2023-09-08T17:05:42.065Z,1.75
2023-09-08T17:08:10.305Z,1.73
2023-09-08T17:10:36.923Z,2.60
2023-09-08T17:13:03.674Z,2.33
2023-09-08T17:15:30.299Z,1.38
2023-09-08T17:17:56.955Z,2.40
2023-09-08T17:20:23.750Z,2.22
2023-09-08T17:22:50.551Z,2.30
2023-09-08T17:25:17.220Z,2.58
2023-09-08T17:27:44.183Z,2.30
2023-09-08T17:30:11.115Z,1.90
2023-09-08T17:32:37.809Z,2.17
2023-09-08T17:35:04.978Z,2.17
2023-09-08T17:37:31.538Z,2.00
2023-09-08T17:39:58.128Z,2.15
2023-09-08T17:42:24.909Z,2.53
2023-09-08T17:44:51.493Z,2.30
2023-09-08T17:47:18.412Z,2.33
2023-09-08T17:49:45.096Z,2.35
2023-09-08T17:52:12.411Z,1.98
2023-09-08T17:54:39.117Z,2.03
2023-09-08T17:57:05.828Z,2.85
2023-09-08T17:59:32.447Z,2.30
2023-09-08T18:01:59.200Z,2.33
2023-09-08T18:04:26.241Z,2.70
2023-09-08T18:06:53.059Z,2.42
2023-09-08T18:09:20.085Z,2.47
2023-09-08T18:11:46.752Z,2.63
2023-09-08T18:14:13.658Z,2.35
2023-09-08T18:16:40.341Z,2.80
2023-09-08T18:19:09.841Z,2.40
2023-09-08T18:21:36.472Z,1.98
2023-09-08T18:24:03.235Z,2.65
2023-09-08T18:26:29.836Z,2.17
2023-09-08T18:28:56.461Z,2.05
2023-09-08T18:31:26.641Z,2.22
2023-09-08T18:33:53.471Z,1.48
2023-09-08T18:36:20.110Z,2.35
2023-09-08T18:38:46.899Z,1.95
2023-09-08T18:41:13.469Z,2.83
2023-09-08T18:43:40.153Z,2.10
2023-09-08T18:46:07.266Z,2.97
2023-09-08T18:48:34.500Z,2.55
2023-09-08T18:51:01.191Z,2.40
2023-09-08T18:53:27.797Z,2.88
2023-09-08T18:55:54.802Z,2.50
2023-09-08T18:58:23.874Z,3.00
2023-09-08T19:00:50.779Z,2.90
2023-09-08T19:03:17.758Z,2.50
2023-09-08T19:05:44.733Z,2.47
2023-09-08T19:08:11.348Z,1.98
2023-09-08T19:10:38.033Z,2.15
2023-09-08T19:13:05.511Z,2.08
2023-09-08T19:15:32.726Z,1.92
2023-09-08T19:17:59.537Z,2.17
2023-09-08T19:20:26.212Z,2.63
2023-09-08T19:22:52.870Z,2.65
2023-09-08T19:25:19.810Z,2.03
2023-09-08T19:27:46.553Z,2.05
2023-09-08T19:30:13.289Z,1.95
2023-09-08T19:32:40.122Z,2.33
2023-09-08T19:35:07.643Z,2.67
2023-09-08T19:37:34.620Z,2.40
2023-09-08T19:40:01.293Z,2.47
2023-09-08T19:42:28.096Z,1.83
2023-09-08T19:44:54.784Z,2.50
2023-09-08T19:47:21.374Z,2.55
2023-09-08T19:49:48.016Z,2.40
2023-09-08T19:52:16.057Z,3.10
2023-09-08T19:54:42.844Z,2.58
2023-09-08T19:57:10.029Z,2.55
2023-09-08T19:59:36.880Z,2.72
2023-09-08T20:02:03.674Z,2.40
2023-09-08T20:04:30.402Z,3.38
2023-09-08T20:06:58.402Z,2.38
2023-09-08T20:09:25.564Z,2.70
2023-09-08T20:11:52.324Z,3.08
2023-09-08T20:14:18.978Z,2.00
2023-09-08T20:16:45.776Z,2.90
2023-09-08T20:19:12.740Z,2.42
2023-09-08T20:21:39.361Z,2.55
2023-09-08T20:24:07.332Z,2.50
2023-09-08T20:26:34.115Z,3.28
2023-09-08T20:29:00.998Z,3.03
2023-09-08T20:31:27.827Z,3.78
2023-09-08T20:33:55.199Z,2.92
2023-09-08T20:36:21.800Z,2.58
2023-09-08T20:38:50.997Z,2.40
2023-09-08T20:41:17.684Z,2.80
2023-09-08T20:43:44.306Z,2.92
2023-09-08T20:46:11.164Z,3.17
2023-09-08T20:48:38.540Z,2.30
2023-09-08T20:51:06.670Z,1.98
2023-09-08T20:53:34.246Z,2.78
2023-09-08T20:56:01.168Z,3.25
2023-09-08T20:58:27.867Z,2.78
2023-09-08T21:00:55.293Z,2.92
2023-09-08T21:03:22.296Z,2.20
2023-09-08T21:05:49.194Z,2.85
2023-09-08T21:08:15.913Z,2.78
2023-09-08T21:10:43.256Z,3.40
2023-09-08T21:13:10.656Z,2.28
2023-09-08T21:15:38.145Z,2.75
2023-09-08T21:18:05.026Z,2.50
2023-09-08T21:20:31.655Z,2.47
2023-09-08T21:22:58.238Z,2.45
2023-09-08T21:25:24.882Z,2.60
2023-09-08T21:27:51.487Z,2.65
2023-09-08T21:30:18.151Z,3.03
2023-09-08T21:32:44.800Z,2.67
2023-09-08T21:35:11.505Z,3.03
2023-09-08T21:37:38.085Z,2.78
2023-09-08T21:40:05.145Z,3.15
2023-09-08T21:42:31.921Z,2.90
2023-09-08T21:44:58.568Z,2.45
2023-09-08T21:47:25.225Z,2.50
2023-09-08T21:49:51.850Z,2.97
2023-09-08T21:52:31.758Z,2.55
2023-09-08T21:55:04.291Z,3.03
2023-09-08T21:57:30.898Z,2.88
2023-09-08T21:59:57.503Z,2.17
2023-09-08T22:02:24.262Z,2.67
2023-09-08T22:04:51.005Z,3.10
2023-09-08T22:07:17.633Z,2.65
2023-09-08T22:09:44.208Z,2.45
2023-09-08T22:12:10.856Z,3.22
2023-09-08T22:14:37.626Z,2.05
2023-09-08T22:17:05.123Z,2.35
2023-09-08T22:19:33.073Z,3.70
2023-09-08T22:21:59.646Z,3.35
2023-09-08T22:24:26.249Z,3.15
2023-09-08T22:26:52.832Z,3.03
2023-09-08T22:29:19.404Z,2.13
2023-09-08T22:31:46.042Z,2.42
2023-09-08T22:34:12.720Z,3.10
2023-09-08T22:36:39.617Z,3.47
2023-09-08T22:39:07.088Z,2.40
2023-09-08T22:41:33.827Z,3.50
2023-09-08T22:44:00.489Z,2.58
2023-09-08T22:46:27.092Z,3.70
2023-09-08T22:48:53.726Z,3.33
2023-09-08T22:51:20.278Z,2.88
2023-09-08T22:53:46.893Z,3.55
2023-09-08T22:56:14.128Z,2.53
2023-09-08T22:58:41.283Z,2.65
2023-09-08T23:01:08.164Z,2.88
2023-09-08T23:03:34.927Z,2.80
2023-09-08T23:06:01.561Z,2.63
2023-09-08T23:08:28.753Z,2.83
2023-09-08T23:10:55.397Z,2.90
2023-09-08T23:13:21.971Z,2.47
2023-09-08T23:15:51.974Z,2.75
2023-09-08T23:18:18.896Z,3.00
2023-09-08T23:20:45.545Z,3.20
2023-09-08T23:23:13.066Z,3.33
2023-09-08T23:25:39.646Z,2.50
2023-09-08T23:28:06.356Z,3.13
2023-09-08T23:30:32.955Z,2.75
2023-09-08T23:32:59.995Z,3.38
2023-09-08T23:35:26.696Z,3.15
2023-09-08T23:37:53.347Z,2.85
2023-09-08T23:40:20.896Z,2.47
2023-09-08T23:42:47.703Z,2.90
2023-09-08T23:45:14.309Z,2.90
2023-09-08T23:47:40.971Z,3.35
2023-09-08T23:50:07.951Z,2.53
2023-09-08T23:52:34.569Z,2.95
2023-09-08T23:55:01.082Z,2.85
2023-09-08T23:57:27.791Z,2.40
2023-09-08T23:59:54.464Z,2.60
